Tome, NM (87060)

3:45 AM MDT on October 01, 2014 (GMT -0600)
MesoWest Los Lunas ASC NM US | Change Station
CLOSE
Current Station
Personal Weather Station
Location: Tome, NM
Elevation: 4842 ft
Nearby Weather Stations

Elev 4842 ft 34.77 °N, 106.76 °W | Updated 45 minutes ago

Clear
Clear
46 °F
Feels Like 46 °F
N
0
Wind Variable Wind from ESE
Gusts 3.0 mph

Today
High -- | Low -- °F
--% Chance of Precip.
Yesterday
High -- | Low -- °F
Precip. -- in
7:01 AM 6:50 PM
Waxing Crescent, 46% visible
Pressure 29.78 in
Visibility 10.0 miles
Clouds Clear
Windchill 46 °F
Dew Point 39 °F
Humidity 75%
Rainfall -999.00 in
Snow Depth 0 in , 2 in , 1 in
UV 0 out of 12
Pollen 5.80 out of 12
Air Quality Not available.
Flu Activity Not available.
METAR KABQ 010852Z 00000KT 10SM CLR 13/01 A2997 RMK AO2 SLP082 T01330006 53003 $

More Conditions Fewer Conditions

Pressure 29.78 in
Visibility 10.0 miles
Clouds Clear
Windchill 46 °F
Dew Point 39 °F
Humidity 75%
Rainfall -999.00 in
Snow Depth 0 in , 2 in , 1 in
UV 0 out of 12
Pollen 5.80 out of 12
Air Quality Not available.
Flu Activity Not available.
METAR KABQ 010852Z 00000KT 10SM CLR 13/01 A2997 RMK AO2 SLP082 T01330006 53003 $

More Conditions Fewer Conditions

10-Day Weather Forecast

Almanac

Astronomy

Oct. 01, 2014 Rise Set
Actual Time 7:01 AM MDT 6:50 PM MDT
Civil Twilight 6:36 AM MDT 7:16 PM MDT
Nautical Twilight 6:07 AM MDT 7:45 PM MDT
Astronomical Twilight 5:37 AM MDT 8:14 PM MDT
Moon 1:54 PM MDT No Moon Set
Length of Visible Light 12h 39m
Length of Day
11h 49m
Tomorrow will be 2m 9s shorter.
Waxing Crescent, 46% of the Moon is Illuminated
Today
Waxing Crescent
Oct 1
First Quarter
Oct 8
Full
Oct 15
Last Quarter
Oct 23
New

Today's Extremes

State Highs State Lows

Community

WunderPhotos

Upload Photos

1,757,904 photos uploaded!

WunderBlogs® & News

Nearby

Snow Depth

Station Depth Elevation
Lookout Mountain 0 in 8500 ft
North Costilla 2 in 10600 ft
Hopewell 1 in 10000 ft
Red River Pass #2 1 in 9850 ft
Signal Peak 1 in 8360 ft

Earthquake Activity

City Distance Mag. Time & Date
No recent earthquake activity has been reported nearby.
Minimum magnitude displayed is 2.5.

Coastal Water Temperatures

Place Temperature
No Stations Reporting

Nearby Weather Stations